Terminal Aerodrome Forecast
Issued by NWS

Home | Current Version | Previous Version | Text Only | Print | Product List | Glossary On
Versions: 1 2 3 4 5 6 7 8 9 10 11 12 13 14 15
074
FTUS44 KLZK 282335
TAFHOT
TAF
KHOT 282335Z 2900/2924 11004KT P6SM SKC
     FM290900 10006KT P6SM OVC035
     FM291100 09005KT 5SM -TSRA BR BKN010CB OVC020
      TEMPO 2912/2916 2SM BR OVC004
     FM292200 15010G20KT 6SM BR VCTS SCT025CB BKN060=

USA.gov is the U.S. government's official web portal to all federal, state and local government web resources and services.